sensor_id;sensor_type;location;lat;lon;timestamp;P1;durP1;ratioP1;P2;durP2;ratioP2
23123;SDS011;11731;48.592;8.858;2023-02-28T00:02:26;2.70;;;1.20;;
23123;SDS011;11731;48.592;8.858;2023-02-28T00:04:52;2.23;;;1.60;;
23123;SDS011;11731;48.592;8.858;2023-02-28T00:07:26;1.80;;;1.50;;
23123;SDS011;11731;48.592;8.858;2023-02-28T00:09:52;4.33;;;1.60;;
23123;SDS011;11731;48.592;8.858;2023-02-28T00:12:19;1.70;;;1.50;;
23123;SDS011;11731;48.592;8.858;2023-02-28T00:14:46;2.27;;;1.60;;
23123;SDS011;11731;48.592;8.858;2023-02-28T00:17:13;1.53;;;1.30;;
23123;SDS011;11731;48.592;8.858;2023-02-28T00:19:42;2.40;;;1.40;;
23123;SDS011;11731;48.592;8.858;2023-02-28T00:22:09;1.90;;;1.13;;
23123;SDS011;11731;48.592;8.858;2023-02-28T00:24:36;2.20;;;1.50;;
23123;SDS011;11731;48.592;8.858;2023-02-28T00:27:03;1.77;;;1.37;;
23123;SDS011;11731;48.592;8.858;2023-02-28T00:29:30;1.20;;;1.10;;
23123;SDS011;11731;48.592;8.858;2023-02-28T00:31:57;2.03;;;1.20;;
23123;SDS011;11731;48.592;8.858;2023-02-28T00:34:24;2.53;;;1.43;;
23123;SDS011;11731;48.592;8.858;2023-02-28T00:36:52;2.10;;;1.13;;
23123;SDS011;11731;48.592;8.858;2023-02-28T00:39:20;2.73;;;1.57;;
23123;SDS011;11731;48.592;8.858;2023-02-28T00:41:47;1.23;;;1.13;;
23123;SDS011;11731;48.592;8.858;2023-02-28T00:44:14;2.10;;;1.50;;
23123;SDS011;11731;48.592;8.858;2023-02-28T00:46:41;1.23;;;1.03;;
23123;SDS011;11731;48.592;8.858;2023-02-28T00:49:08;2.03;;;1.37;;
23123;SDS011;11731;48.592;8.858;2023-02-28T00:51:35;1.90;;;1.40;;
23123;SDS011;11731;48.592;8.858;2023-02-28T00:54:03;2.70;;;1.47;;
23123;SDS011;11731;48.592;8.858;2023-02-28T00:56:30;4.23;;;1.40;;
23123;SDS011;11731;48.592;8.858;2023-02-28T00:58:57;2.73;;;1.43;;
23123;SDS011;11731;48.592;8.858;2023-02-28T01:01:24;2.37;;;1.50;;
23123;SDS011;11731;48.592;8.858;2023-02-28T01:03:50;2.47;;;1.50;;
23123;SDS011;11731;48.592;8.858;2023-02-28T01:06:17;1.80;;;1.40;;
23123;SDS011;11731;48.592;8.858;2023-02-28T01:08:44;2.03;;;1.27;;
23123;SDS011;11731;48.592;8.858;2023-02-28T01:11:13;2.83;;;1.60;;
23123;SDS011;11731;48.592;8.858;2023-02-28T01:13:42;1.90;;;1.57;;
23123;SDS011;11731;48.592;8.858;2023-02-28T01:16:10;3.00;;;1.57;;
23123;SDS011;11731;48.592;8.858;2023-02-28T01:18:38;1.60;;;1.50;;
23123;SDS011;11731;48.592;8.858;2023-02-28T01:21:05;3.13;;;1.57;;
23123;SDS011;11731;48.592;8.858;2023-02-28T01:23:33;1.40;;;1.30;;
23123;SDS011;11731;48.592;8.858;2023-02-28T01:26:03;2.17;;;1.40;;
23123;SDS011;11731;48.592;8.858;2023-02-28T01:28:32;3.17;;;1.37;;
23123;SDS011;11731;48.592;8.858;2023-02-28T01:30:59;1.90;;;1.50;;
23123;SDS011;11731;48.592;8.858;2023-02-28T01:33:26;2.93;;;1.63;;
23123;SDS011;11731;48.592;8.858;2023-02-28T01:35:57;1.43;;;1.30;;
23123;SDS011;11731;48.592;8.858;2023-02-28T01:38:24;2.03;;;1.40;;
23123;SDS011;11731;48.592;8.858;2023-02-28T01:40:51;2.23;;;1.50;;
23123;SDS011;11731;48.592;8.858;2023-02-28T01:43:22;3.33;;;1.27;;
23123;SDS011;11731;48.592;8.858;2023-02-28T01:45:51;1.97;;;1.30;;
23123;SDS011;11731;48.592;8.858;2023-02-28T01:48:20;2.77;;;1.40;;
23123;SDS011;11731;48.592;8.858;2023-02-28T01:50:50;2.83;;;1.67;;
23123;SDS011;11731;48.592;8.858;2023-02-28T01:53:19;2.33;;;1.70;;
23123;SDS011;11731;48.592;8.858;2023-02-28T01:55:51;2.30;;;1.67;;
23123;SDS011;11731;48.592;8.858;2023-02-28T01:58:20;1.97;;;1.70;;
23123;SDS011;11731;48.592;8.858;2023-02-28T02:00:47;1.70;;;1.30;;
23123;SDS011;11731;48.592;8.858;2023-02-28T02:03:17;1.57;;;1.30;;
23123;SDS011;11731;48.592;8.858;2023-02-28T02:05:46;3.87;;;1.70;;
23123;SDS011;11731;48.592;8.858;2023-02-28T02:08:13;1.60;;;1.33;;
23123;SDS011;11731;48.592;8.858;2023-02-28T02:10:44;3.27;;;1.70;;
23123;SDS011;11731;48.592;8.858;2023-02-28T02:13:36;2.57;;;1.27;;
23123;SDS011;11731;48.592;8.858;2023-02-28T02:16:16;3.43;;;1.80;;
23123;SDS011;11731;48.592;8.858;2023-02-28T02:18:54;2.40;;;1.63;;
23123;SDS011;11731;48.592;8.858;2023-02-28T02:24:36;2.00;;;1.60;;
23123;SDS011;11731;48.592;8.858;2023-02-28T02:27:20;3.17;;;1.67;;
23123;SDS011;11731;48.592;8.858;2023-02-28T02:35:49;1.80;;;1.63;;
23123;SDS011;11731;48.592;8.858;2023-02-28T02:38:25;1.80;;;1.57;;
23123;SDS011;11731;48.592;8.858;2023-02-28T02:40:59;1.83;;;1.63;;
23123;SDS011;11731;48.592;8.858;2023-02-28T02:43:39;2.47;;;2.00;;
23123;SDS011;11731;48.592;8.858;2023-02-28T02:46:12;2.40;;;1.73;;
23123;SDS011;11731;48.592;8.858;2023-02-28T02:48:42;2.03;;;1.60;;
23123;SDS011;11731;48.592;8.858;2023-02-28T02:51:13;1.80;;;1.70;;
23123;SDS011;11731;48.592;8.858;2023-02-28T02:53:44;3.57;;;2.03;;
23123;SDS011;11731;48.592;8.858;2023-02-28T02:56:15;2.83;;;1.70;;
23123;SDS011;11731;48.592;8.858;2023-02-28T02:58:44;2.20;;;1.43;;
23123;SDS011;11731;48.592;8.858;2023-02-28T03:01:16;1.67;;;1.57;;
23123;SDS011;11731;48.592;8.858;2023-02-28T03:03:53;2.87;;;1.53;;
23123;SDS011;11731;48.592;8.858;2023-02-28T03:06:24;2.60;;;1.77;;
23123;SDS011;11731;48.592;8.858;2023-02-28T03:08:51;2.73;;;1.70;;
23123;SDS011;11731;48.592;8.858;2023-02-28T03:11:18;2.77;;;2.10;;
23123;SDS011;11731;48.592;8.858;2023-02-28T03:20:07;2.77;;;2.00;;
23123;SDS011;11731;48.592;8.858;2023-02-28T03:22:45;4.47;;;2.27;;
23123;SDS011;11731;48.592;8.858;2023-02-28T03:25:29;2.10;;;1.90;;
23123;SDS011;11731;48.592;8.858;2023-02-28T03:28:04;2.10;;;1.70;;
23123;SDS011;11731;48.592;8.858;2023-02-28T03:30:39;2.77;;;1.93;;
23123;SDS011;11731;48.592;8.858;2023-02-28T03:33:12;2.47;;;2.10;;
23123;SDS011;11731;48.592;8.858;2023-02-28T03:35:42;1.97;;;1.67;;
23123;SDS011;11731;48.592;8.858;2023-02-28T03:38:15;2.30;;;2.10;;
23123;SDS011;11731;48.592;8.858;2023-02-28T03:40:47;2.37;;;1.80;;
23123;SDS011;11731;48.592;8.858;2023-02-28T03:43:18;2.83;;;2.40;;
23123;SDS011;11731;48.592;8.858;2023-02-28T03:45:50;3.83;;;1.77;;
23123;SDS011;11731;48.592;8.858;2023-02-28T03:48:23;2.87;;;2.10;;
23123;SDS011;11731;48.592;8.858;2023-02-28T03:50:57;3.23;;;2.20;;
23123;SDS011;11731;48.592;8.858;2023-02-28T03:53:28;3.17;;;2.33;;
23123;SDS011;11731;48.592;8.858;2023-02-28T03:55:59;3.63;;;2.20;;
23123;SDS011;11731;48.592;8.858;2023-02-28T03:58:30;4.20;;;2.20;;
23123;SDS011;11731;48.592;8.858;2023-02-28T04:01:03;3.77;;;2.30;;
23123;SDS011;11731;48.592;8.858;2023-02-28T04:03:34;3.83;;;2.37;;
23123;SDS011;11731;48.592;8.858;2023-02-28T04:06:03;2.20;;;2.00;;
23123;SDS011;11731;48.592;8.858;2023-02-28T04:08:33;4.33;;;2.33;;
23123;SDS011;11731;48.592;8.858;2023-02-28T04:11:00;2.17;;;1.83;;
23123;SDS011;11731;48.592;8.858;2023-02-28T04:13:31;2.80;;;2.00;;
23123;SDS011;11731;48.592;8.858;2023-02-28T04:15:57;3.73;;;2.30;;
23123;SDS011;11731;48.592;8.858;2023-02-28T04:18:24;3.20;;;2.57;;
23123;SDS011;11731;48.592;8.858;2023-02-28T04:20:51;2.33;;;2.07;;
23123;SDS011;11731;48.592;8.858;2023-02-28T04:23:18;5.10;;;2.67;;
23123;SDS011;11731;48.592;8.858;2023-02-28T04:25:46;7.03;;;2.53;;
23123;SDS011;11731;48.592;8.858;2023-02-28T04:28:14;4.73;;;2.80;;
23123;SDS011;11731;48.592;8.858;2023-02-28T04:30:41;3.87;;;2.60;;
23123;SDS011;11731;48.592;8.858;2023-02-28T04:33:08;2.80;;;2.17;;
23123;SDS011;11731;48.592;8.858;2023-02-28T04:35:35;2.73;;;2.33;;
23123;SDS011;11731;48.592;8.858;2023-02-28T04:38:01;4.30;;;2.43;;
23123;SDS011;11731;48.592;8.858;2023-02-28T04:40:28;3.77;;;2.70;;
23123;SDS011;11731;48.592;8.858;2023-02-28T04:42:56;3.80;;;2.33;;
23123;SDS011;11731;48.592;8.858;2023-02-28T04:45:23;2.97;;;2.43;;
23123;SDS011;11731;48.592;8.858;2023-02-28T04:47:50;3.73;;;2.40;;
23123;SDS011;11731;48.592;8.858;2023-02-28T04:50:18;2.33;;;2.00;;
23123;SDS011;11731;48.592;8.858;2023-02-28T04:52:45;2.80;;;2.40;;
23123;SDS011;11731;48.592;8.858;2023-02-28T04:55:12;4.40;;;2.50;;
23123;SDS011;11731;48.592;8.858;2023-02-28T04:57:39;3.93;;;2.80;;
23123;SDS011;11731;48.592;8.858;2023-02-28T05:00:12;3.97;;;2.70;;
23123;SDS011;11731;48.592;8.858;2023-02-28T05:02:41;2.60;;;2.20;;
23123;SDS011;11731;48.592;8.858;2023-02-28T05:05:08;6.00;;;2.90;;
23123;SDS011;11731;48.592;8.858;2023-02-28T05:07:35;3.27;;;2.50;;
23123;SDS011;11731;48.592;8.858;2023-02-28T05:10:02;3.63;;;2.90;;
23123;SDS011;11731;48.592;8.858;2023-02-28T05:12:29;3.03;;;2.43;;
23123;SDS011;11731;48.592;8.858;2023-02-28T05:14:56;4.17;;;3.00;;
23123;SDS011;11731;48.592;8.858;2023-02-28T05:17:24;4.50;;;2.60;;
23123;SDS011;11731;48.592;8.858;2023-02-28T05:19:51;4.07;;;2.87;;
23123;SDS011;11731;48.592;8.858;2023-02-28T05:22:18;3.63;;;2.70;;
23123;SDS011;11731;48.592;8.858;2023-02-28T05:24:45;3.97;;;2.70;;
23123;SDS011;11731;48.592;8.858;2023-02-28T05:27:12;3.53;;;2.57;;
23123;SDS011;11731;48.592;8.858;2023-02-28T05:29:38;3.20;;;2.73;;
23123;SDS011;11731;48.592;8.858;2023-02-28T05:32:10;3.97;;;2.70;;
23123;SDS011;11731;48.592;8.858;2023-02-28T05:34:39;2.63;;;2.40;;
23123;SDS011;11731;48.592;8.858;2023-02-28T05:37:07;4.00;;;2.70;;
23123;SDS011;11731;48.592;8.858;2023-02-28T05:39:38;4.53;;;3.33;;
23123;SDS011;11731;48.592;8.858;2023-02-28T05:42:05;4.73;;;3.10;;
23123;SDS011;11731;48.592;8.858;2023-02-28T05:44:38;4.20;;;2.30;;
23123;SDS011;11731;48.592;8.858;2023-02-28T05:47:04;3.77;;;3.17;;
23123;SDS011;11731;48.592;8.858;2023-02-28T05:49:31;5.13;;;3.40;;
23123;SDS011;11731;48.592;8.858;2023-02-28T05:51:59;7.37;;;3.23;;
23123;SDS011;11731;48.592;8.858;2023-02-28T05:54:26;3.80;;;3.10;;
23123;SDS011;11731;48.592;8.858;2023-02-28T05:56:53;5.17;;;3.37;;
23123;SDS011;11731;48.592;8.858;2023-02-28T05:59:20;4.17;;;3.03;;
23123;SDS011;11731;48.592;8.858;2023-02-28T06:01:47;3.47;;;2.90;;
23123;SDS011;11731;48.592;8.858;2023-02-28T06:04:15;4.33;;;3.10;;
23123;SDS011;11731;48.592;8.858;2023-02-28T06:06:44;5.03;;;3.37;;
23123;SDS011;11731;48.592;8.858;2023-02-28T06:09:12;6.37;;;2.53;;
23123;SDS011;11731;48.592;8.858;2023-02-28T06:11:39;4.03;;;3.20;;
23123;SDS011;11731;48.592;8.858;2023-02-28T06:14:07;3.80;;;3.10;;
23123;SDS011;11731;48.592;8.858;2023-02-28T06:16:39;4.57;;;3.67;;
23123;SDS011;11731;48.592;8.858;2023-02-28T06:21:56;4.37;;;3.70;;
23123;SDS011;11731;48.592;8.858;2023-02-28T06:24:26;3.87;;;2.90;;
23123;SDS011;11731;48.592;8.858;2023-02-28T06:26:54;5.27;;;3.50;;
23123;SDS011;11731;48.592;8.858;2023-02-28T06:29:21;4.13;;;3.23;;
23123;SDS011;11731;48.592;8.858;2023-02-28T06:31:48;4.67;;;3.30;;
23123;SDS011;11731;48.592;8.858;2023-02-28T06:34:15;3.93;;;3.17;;
23123;SDS011;11731;48.592;8.858;2023-02-28T06:36:43;3.93;;;3.47;;
23123;SDS011;11731;48.592;8.858;2023-02-28T06:39:10;3.27;;;2.80;;
23123;SDS011;11731;48.592;8.858;2023-02-28T06:41:38;5.57;;;3.43;;
23123;SDS011;11731;48.592;8.858;2023-02-28T06:44:05;5.10;;;3.27;;
23123;SDS011;11731;48.592;8.858;2023-02-28T06:46:38;5.90;;;3.20;;
23123;SDS011;11731;48.592;8.858;2023-02-28T06:49:05;4.77;;;3.60;;
23123;SDS011;11731;48.592;8.858;2023-02-28T06:51:34;5.20;;;3.67;;
23123;SDS011;11731;48.592;8.858;2023-02-28T06:54:01;5.50;;;4.03;;
23123;SDS011;11731;48.592;8.858;2023-02-28T06:56:28;4.97;;;3.30;;
23123;SDS011;11731;48.592;8.858;2023-02-28T06:58:57;5.10;;;3.53;;
23123;SDS011;11731;48.592;8.858;2023-02-28T07:01:23;6.10;;;4.40;;
23123;SDS011;11731;48.592;8.858;2023-02-28T07:03:50;7.93;;;3.60;;
23123;SDS011;11731;48.592;8.858;2023-02-28T07:06:18;6.03;;;3.80;;
23123;SDS011;11731;48.592;8.858;2023-02-28T07:08:47;5.90;;;3.83;;
23123;SDS011;11731;48.592;8.858;2023-02-28T07:11:14;5.90;;;3.97;;
23123;SDS011;11731;48.592;8.858;2023-02-28T07:13:41;7.13;;;4.17;;
23123;SDS011;11731;48.592;8.858;2023-02-28T07:16:10;5.03;;;3.43;;
23123;SDS011;11731;48.592;8.858;2023-02-28T07:18:38;5.27;;;3.17;;
23123;SDS011;11731;48.592;8.858;2023-02-28T07:21:05;5.73;;;3.60;;
23123;SDS011;11731;48.592;8.858;2023-02-28T07:23:33;4.67;;;3.10;;
23123;SDS011;11731;48.592;8.858;2023-02-28T07:26:03;4.40;;;3.90;;
23123;SDS011;11731;48.592;8.858;2023-02-28T07:28:30;5.37;;;3.73;;
23123;SDS011;11731;48.592;8.858;2023-02-28T07:31:02;4.93;;;3.70;;
23123;SDS011;11731;48.592;8.858;2023-02-28T07:33:31;4.30;;;3.50;;
23123;SDS011;11731;48.592;8.858;2023-02-28T07:36:02;4.70;;;3.33;;
23123;SDS011;11731;48.592;8.858;2023-02-28T07:38:30;4.03;;;3.33;;
23123;SDS011;11731;48.592;8.858;2023-02-28T07:40:57;7.13;;;4.47;;
23123;SDS011;11731;48.592;8.858;2023-02-28T07:43:23;4.27;;;3.53;;
23123;SDS011;11731;48.592;8.858;2023-02-28T07:45:50;4.97;;;3.57;;
23123;SDS011;11731;48.592;8.858;2023-02-28T07:48:17;5.07;;;3.53;;
23123;SDS011;11731;48.592;8.858;2023-02-28T07:50:45;4.70;;;3.77;;
23123;SDS011;11731;48.592;8.858;2023-02-28T07:53:21;5.80;;;3.80;;
23123;SDS011;11731;48.592;8.858;2023-02-28T07:55:48;5.37;;;3.67;;
23123;SDS011;11731;48.592;8.858;2023-02-28T07:58:15;7.07;;;4.30;;
23123;SDS011;11731;48.592;8.858;2023-02-28T08:00:42;6.53;;;3.60;;
23123;SDS011;11731;48.592;8.858;2023-02-28T08:03:09;5.90;;;4.17;;
23123;SDS011;11731;48.592;8.858;2023-02-28T08:05:38;5.77;;;3.97;;
23123;SDS011;11731;48.592;8.858;2023-02-28T08:08:07;5.43;;;3.97;;
23123;SDS011;11731;48.592;8.858;2023-02-28T08:10:34;6.87;;;3.60;;
23123;SDS011;11731;48.592;8.858;2023-02-28T08:13:01;5.63;;;4.40;;
23123;SDS011;11731;48.592;8.858;2023-02-28T08:15:28;5.90;;;3.73;;
23123;SDS011;11731;48.592;8.858;2023-02-28T08:17:56;5.40;;;4.50;;
23123;SDS011;11731;48.592;8.858;2023-02-28T08:20:23;8.10;;;4.70;;
23123;SDS011;11731;48.592;8.858;2023-02-28T08:22:50;6.50;;;3.97;;
23123;SDS011;11731;48.592;8.858;2023-02-28T08:25:18;7.77;;;4.30;;
23123;SDS011;11731;48.592;8.858;2023-02-28T08:27:46;5.03;;;4.20;;
23123;SDS011;11731;48.592;8.858;2023-02-28T08:30:13;8.03;;;5.13;;
23123;SDS011;11731;48.592;8.858;2023-02-28T08:32:41;4.83;;;4.33;;
23123;SDS011;11731;48.592;8.858;2023-02-28T08:35:08;7.70;;;4.33;;
23123;SDS011;11731;48.592;8.858;2023-02-28T08:37:36;5.67;;;4.33;;
23123;SDS011;11731;48.592;8.858;2023-02-28T08:40:03;5.07;;;3.83;;
23123;SDS011;11731;48.592;8.858;2023-02-28T08:42:33;4.60;;;3.73;;
23123;SDS011;11731;48.592;8.858;2023-02-28T08:45:00;6.80;;;4.13;;
23123;SDS011;11731;48.592;8.858;2023-02-28T08:47:26;6.13;;;4.30;;
23123;SDS011;11731;48.592;8.858;2023-02-28T08:49:53;7.63;;;4.07;;
23123;SDS011;11731;48.592;8.858;2023-02-28T08:52:20;6.30;;;4.90;;
23123;SDS011;11731;48.592;8.858;2023-02-28T08:54:47;7.07;;;4.50;;
23123;SDS011;11731;48.592;8.858;2023-02-28T08:57:14;5.83;;;4.40;;
23123;SDS011;11731;48.592;8.858;2023-02-28T08:59:42;7.57;;;4.57;;
23123;SDS011;11731;48.592;8.858;2023-02-28T09:02:10;6.07;;;4.57;;
23123;SDS011;11731;48.592;8.858;2023-02-28T09:04:39;5.97;;;4.70;;
23123;SDS011;11731;48.592;8.858;2023-02-28T09:07:06;5.67;;;4.40;;
23123;SDS011;11731;48.592;8.858;2023-02-28T09:09:33;5.63;;;4.20;;
23123;SDS011;11731;48.592;8.858;2023-02-28T09:12:00;7.73;;;4.63;;
23123;SDS011;11731;48.592;8.858;2023-02-28T09:14:27;5.33;;;4.07;;
23123;SDS011;11731;48.592;8.858;2023-02-28T09:16:55;7.87;;;4.97;;
23123;SDS011;11731;48.592;8.858;2023-02-28T09:19:22;6.87;;;4.30;;
23123;SDS011;11731;48.592;8.858;2023-02-28T09:21:49;6.97;;;5.00;;
23123;SDS011;11731;48.592;8.858;2023-02-28T09:24:17;8.03;;;5.07;;
23123;SDS011;11731;48.592;8.858;2023-02-28T09:26:45;6.97;;;5.17;;
23123;SDS011;11731;48.592;8.858;2023-02-28T09:29:12;5.93;;;4.40;;
23123;SDS011;11731;48.592;8.858;2023-02-28T09:31:39;7.93;;;5.30;;
23123;SDS011;11731;48.592;8.858;2023-02-28T09:34:07;6.27;;;4.60;;
23123;SDS011;11731;48.592;8.858;2023-02-28T09:36:35;6.40;;;4.50;;
23123;SDS011;11731;48.592;8.858;2023-02-28T09:39:03;5.97;;;4.63;;
23123;SDS011;11731;48.592;8.858;2023-02-28T09:41:31;6.07;;;4.20;;
23123;SDS011;11731;48.592;8.858;2023-02-28T09:44:12;6.47;;;5.13;;
23123;SDS011;11731;48.592;8.858;2023-02-28T09:46:47;6.67;;;4.80;;
23123;SDS011;11731;48.592;8.858;2023-02-28T09:49:21;6.43;;;5.07;;
23123;SDS011;11731;48.592;8.858;2023-02-28T09:51:53;5.83;;;4.23;;
23123;SDS011;11731;48.592;8.858;2023-02-28T09:54:26;5.80;;;5.00;;
23123;SDS011;11731;48.592;8.858;2023-02-28T09:56:56;6.27;;;4.87;;
23123;SDS011;11731;48.592;8.858;2023-02-28T09:59:33;11.47;;;4.83;;
23123;SDS011;11731;48.592;8.858;2023-02-28T10:02:10;7.87;;;4.63;;
23123;SDS011;11731;48.592;8.858;2023-02-28T10:04:49;10.27;;;5.27;;
23123;SDS011;11731;48.592;8.858;2023-02-28T10:07:27;6.77;;;4.90;;
23123;SDS011;11731;48.592;8.858;2023-02-28T10:10:07;7.00;;;4.70;;
23123;SDS011;11731;48.592;8.858;2023-02-28T10:12:47;7.13;;;4.33;;
23123;SDS011;11731;48.592;8.858;2023-02-28T10:15:17;6.80;;;4.83;;
23123;SDS011;11731;48.592;8.858;2023-02-28T10:17:47;8.63;;;5.63;;
23123;SDS011;11731;48.592;8.858;2023-02-28T10:20:21;8.43;;;4.53;;
23123;SDS011;11731;48.592;8.858;2023-02-28T10:22:57;8.07;;;4.93;;
23123;SDS011;11731;48.592;8.858;2023-02-28T10:25:32;8.73;;;5.07;;
23123;SDS011;11731;48.592;8.858;2023-02-28T10:28:01;8.60;;;5.43;;
23123;SDS011;11731;48.592;8.858;2023-02-28T10:30:36;6.27;;;4.87;;
23123;SDS011;11731;48.592;8.858;2023-02-28T10:33:08;6.63;;;5.40;;
23123;SDS011;11731;48.592;8.858;2023-02-28T10:35:45;7.20;;;4.93;;
23123;SDS011;11731;48.592;8.858;2023-02-28T10:38:14;7.07;;;5.07;;
23123;SDS011;11731;48.592;8.858;2023-02-28T10:40:43;8.37;;;5.23;;
23123;SDS011;11731;48.592;8.858;2023-02-28T10:43:18;7.40;;;4.30;;
23123;SDS011;11731;48.592;8.858;2023-02-28T10:45:53;7.00;;;4.83;;
23123;SDS011;11731;48.592;8.858;2023-02-28T10:48:29;5.20;;;4.40;;
23123;SDS011;11731;48.592;8.858;2023-02-28T10:51:00;5.93;;;4.40;;
23123;SDS011;11731;48.592;8.858;2023-02-28T10:53:30;7.30;;;5.03;;
23123;SDS011;11731;48.592;8.858;2023-02-28T10:55:59;6.73;;;4.70;;
23123;SDS011;11731;48.592;8.858;2023-02-28T10:58:28;9.27;;;5.50;;
23123;SDS011;11731;48.592;8.858;2023-02-28T11:00:57;8.07;;;4.70;;
23123;SDS011;11731;48.592;8.858;2023-02-28T11:03:29;5.93;;;4.87;;
23123;SDS011;11731;48.592;8.858;2023-02-28T11:06:03;7.27;;;5.27;;
23123;SDS011;11731;48.592;8.858;2023-02-28T11:08:33;5.87;;;4.77;;
23123;SDS011;11731;48.592;8.858;2023-02-28T11:11:01;5.67;;;5.07;;
23123;SDS011;11731;48.592;8.858;2023-02-28T11:13:32;5.50;;;3.97;;
23123;SDS011;11731;48.592;8.858;2023-02-28T11:16:02;8.77;;;5.30;;
23123;SDS011;11731;48.592;8.858;2023-02-28T11:18:33;8.30;;;4.80;;
23123;SDS011;11731;48.592;8.858;2023-02-28T11:21:09;6.53;;;4.90;;
23123;SDS011;11731;48.592;8.858;2023-02-28T11:23:43;9.83;;;5.10;;
23123;SDS011;11731;48.592;8.858;2023-02-28T11:26:10;8.33;;;5.20;;
23123;SDS011;11731;48.592;8.858;2023-02-28T11:28:37;6.50;;;4.97;;
23123;SDS011;11731;48.592;8.858;2023-02-28T11:31:14;6.77;;;4.40;;
23123;SDS011;11731;48.592;8.858;2023-02-28T11:33:44;5.90;;;4.50;;
23123;SDS011;11731;48.592;8.858;2023-02-28T11:36:18;7.17;;;5.20;;
23123;SDS011;11731;48.592;8.858;2023-02-28T11:38:46;7.90;;;4.90;;
23123;SDS011;11731;48.592;8.858;2023-02-28T11:44:21;6.50;;;4.97;;
23123;SDS011;11731;48.592;8.858;2023-02-28T11:46:56;6.87;;;4.97;;
23123;SDS011;11731;48.592;8.858;2023-02-28T11:49:30;7.47;;;5.23;;
23123;SDS011;11731;48.592;8.858;2023-02-28T11:52:04;6.47;;;4.60;;
23123;SDS011;11731;48.592;8.858;2023-02-28T11:54:45;7.63;;;5.07;;
23123;SDS011;11731;48.592;8.858;2023-02-28T11:57:28;7.47;;;5.03;;
23123;SDS011;11731;48.592;8.858;2023-02-28T12:00:07;6.70;;;5.20;;
23123;SDS011;11731;48.592;8.858;2023-02-28T12:02:53;8.57;;;5.43;;
23123;SDS011;11731;48.592;8.858;2023-02-28T12:05:31;7.80;;;5.30;;
23123;SDS011;11731;48.592;8.858;2023-02-28T12:08:41;7.00;;;5.30;;
23123;SDS011;11731;48.592;8.858;2023-02-28T12:11:19;7.40;;;5.40;;
23123;SDS011;11731;48.592;8.858;2023-02-28T12:14:18;7.20;;;5.00;;
23123;SDS011;11731;48.592;8.858;2023-02-28T12:16:59;7.00;;;5.60;;
23123;SDS011;11731;48.592;8.858;2023-02-28T12:20:03;11.90;;;5.20;;
23123;SDS011;11731;48.592;8.858;2023-02-28T12:22:40;8.40;;;5.37;;
23123;SDS011;11731;48.592;8.858;2023-02-28T12:28:16;6.30;;;4.77;;
23123;SDS011;11731;48.592;8.858;2023-02-28T12:30:49;7.57;;;5.20;;
23123;SDS011;11731;48.592;8.858;2023-02-28T12:33:20;7.43;;;5.17;;
23123;SDS011;11731;48.592;8.858;2023-02-28T12:35:58;7.77;;;5.37;;
23123;SDS011;11731;48.592;8.858;2023-02-28T12:38:28;6.20;;;4.83;;
23123;SDS011;11731;48.592;8.858;2023-02-28T12:41:10;8.03;;;5.37;;
23123;SDS011;11731;48.592;8.858;2023-02-28T12:43:41;7.60;;;5.40;;
23123;SDS011;11731;48.592;8.858;2023-02-28T12:46:14;7.20;;;5.50;;
23123;SDS011;11731;48.592;8.858;2023-02-28T12:51:55;8.13;;;5.70;;
23123;SDS011;11731;48.592;8.858;2023-02-28T12:54:25;7.47;;;5.27;;
23123;SDS011;11731;48.592;8.858;2023-02-28T12:57:27;6.97;;;5.23;;
23123;SDS011;11731;48.592;8.858;2023-02-28T13:00:03;8.93;;;5.60;;
23123;SDS011;11731;48.592;8.858;2023-02-28T13:02:42;9.93;;;5.13;;
23123;SDS011;11731;48.592;8.858;2023-02-28T13:05:26;8.10;;;5.30;;
23123;SDS011;11731;48.592;8.858;2023-02-28T13:08:21;7.50;;;5.53;;
23123;SDS011;11731;48.592;8.858;2023-02-28T13:13:26;6.87;;;5.23;;
23123;SDS011;11731;48.592;8.858;2023-02-28T13:14:40;7.47;;;5.67;;
23123;SDS011;11731;48.592;8.858;2023-02-28T13:17:10;6.63;;;4.83;;
23123;SDS011;11731;48.592;8.858;2023-02-28T13:19:39;6.97;;;5.30;;
23123;SDS011;11731;48.592;8.858;2023-02-28T13:22:16;6.93;;;5.13;;
23123;SDS011;11731;48.592;8.858;2023-02-28T13:24:45;7.10;;;5.50;;
23123;SDS011;11731;48.592;8.858;2023-02-28T13:30:01;7.90;;;5.33;;
23123;SDS011;11731;48.592;8.858;2023-02-28T13:33:24;6.07;;;5.13;;
23123;SDS011;11731;48.592;8.858;2023-02-28T13:39:00;7.80;;;5.07;;
23123;SDS011;11731;48.592;8.858;2023-02-28T13:41:46;11.43;;;5.77;;
23123;SDS011;11731;48.592;8.858;2023-02-28T13:44:15;7.17;;;5.70;;
23123;SDS011;11731;48.592;8.858;2023-02-28T13:49:50;6.63;;;5.50;;
23123;SDS011;11731;48.592;8.858;2023-02-28T13:52:18;7.60;;;5.57;;
23123;SDS011;11731;48.592;8.858;2023-02-28T13:54:56;6.87;;;5.60;;
23123;SDS011;11731;48.592;8.858;2023-02-28T13:57:48;9.50;;;5.40;;
23123;SDS011;11731;48.592;8.858;2023-02-28T14:00:59;7.33;;;5.33;;
23123;SDS011;11731;48.592;8.858;2023-02-28T14:03:41;8.23;;;5.53;;
23123;SDS011;11731;48.592;8.858;2023-02-28T14:06:23;6.53;;;5.10;;
23123;SDS011;11731;48.592;8.858;2023-02-28T14:08:56;8.23;;;5.37;;
23123;SDS011;11731;48.592;8.858;2023-02-28T14:11:29;8.87;;;5.87;;
23123;SDS011;11731;48.592;8.858;2023-02-28T14:14:00;8.40;;;5.67;;
23123;SDS011;11731;48.592;8.858;2023-02-28T14:16:28;9.67;;;5.67;;
23123;SDS011;11731;48.592;8.858;2023-02-28T14:19:05;8.47;;;5.67;;
23123;SDS011;11731;48.592;8.858;2023-02-28T14:21:38;6.97;;;5.40;;
23123;SDS011;11731;48.592;8.858;2023-02-28T14:24:38;8.30;;;5.10;;
23123;SDS011;11731;48.592;8.858;2023-02-28T14:27:24;6.97;;;5.57;;
23123;SDS011;11731;48.592;8.858;2023-02-28T14:33:19;7.47;;;5.77;;
23123;SDS011;11731;48.592;8.858;2023-02-28T14:35:59;6.30;;;5.60;;
23123;SDS011;11731;48.592;8.858;2023-02-28T14:38:39;7.70;;;5.87;;
23123;SDS011;11731;48.592;8.858;2023-02-28T14:41:14;8.90;;;5.47;;
23123;SDS011;11731;48.592;8.858;2023-02-28T14:43:50;7.23;;;5.17;;
23123;SDS011;11731;48.592;8.858;2023-02-28T14:48:26;7.90;;;5.67;;
23123;SDS011;11731;48.592;8.858;2023-02-28T14:52:34;7.43;;;5.57;;
23123;SDS011;11731;48.592;8.858;2023-02-28T14:55:03;10.20;;;5.50;;
23123;SDS011;11731;48.592;8.858;2023-02-28T14:57:39;8.83;;;5.97;;
23123;SDS011;11731;48.592;8.858;2023-02-28T15:00:11;7.10;;;5.67;;
23123;SDS011;11731;48.592;8.858;2023-02-28T15:02:41;6.10;;;5.27;;
23123;SDS011;11731;48.592;8.858;2023-02-28T15:05:25;8.40;;;5.07;;
23123;SDS011;11731;48.592;8.858;2023-02-28T15:08:02;7.23;;;5.77;;
23123;SDS011;11731;48.592;8.858;2023-02-28T15:10:40;7.40;;;5.60;;
23123;SDS011;11731;48.592;8.858;2023-02-28T15:13:11;10.33;;;5.67;;
23123;SDS011;11731;48.592;8.858;2023-02-28T15:15:41;6.67;;;5.97;;
23123;SDS011;11731;48.592;8.858;2023-02-28T15:18:15;7.40;;;5.47;;
23123;SDS011;11731;48.592;8.858;2023-02-28T15:20:54;8.17;;;5.63;;
23123;SDS011;11731;48.592;8.858;2023-02-28T15:23:22;7.40;;;5.37;;
23123;SDS011;11731;48.592;8.858;2023-02-28T15:25:52;7.80;;;5.30;;
23123;SDS011;11731;48.592;8.858;2023-02-28T15:28:20;8.07;;;5.57;;
23123;SDS011;11731;48.592;8.858;2023-02-28T15:30:55;7.47;;;5.03;;
23123;SDS011;11731;48.592;8.858;2023-02-28T15:33:52;7.30;;;5.70;;
23123;SDS011;11731;48.592;8.858;2023-02-28T15:39:18;7.47;;;5.07;;
23123;SDS011;11731;48.592;8.858;2023-02-28T15:41:46;8.63;;;6.07;;
23123;SDS011;11731;48.592;8.858;2023-02-28T15:44:14;6.90;;;5.27;;
23123;SDS011;11731;48.592;8.858;2023-02-28T15:46:58;6.47;;;4.90;;
23123;SDS011;11731;48.592;8.858;2023-02-28T15:49:27;7.83;;;5.33;;
23123;SDS011;11731;48.592;8.858;2023-02-28T15:55:27;7.03;;;5.43;;
23123;SDS011;11731;48.592;8.858;2023-02-28T15:58:11;7.93;;;5.17;;
23123;SDS011;11731;48.592;8.858;2023-02-28T16:01:00;8.37;;;5.83;;
23123;SDS011;11731;48.592;8.858;2023-02-28T16:03:35;6.93;;;5.40;;
23123;SDS011;11731;48.592;8.858;2023-02-28T16:09:05;5.80;;;4.90;;